Terminal Aerodrome Forecast
Issued by NWS

Home | Current Version | Previous Version | Text Only | Print | Product List | Glossary On
Versions: 1 2 3 4 5 6 7 8 9 10 11 12 13 14 15 16
096
FTUS41 KBTV 230658 AAA
TAFRUT
TAF AMD
KRUT 230658Z 2307/2406 23004KT P6SM SCT018 OVC045
      TEMPO 2308/2310 2SM BR OVC002
     FM231100 33004KT P6SM SCT040 BKN250
     FM232100 27005KT P6SM SCT200=

USA.gov is the U.S. government's official web portal to all federal, state and local government web resources and services.